sensor_id;sensor_type;location;lat;lon;timestamp;pressure;altitude;pressure_sealevel;temperature;humidity
13767;BME280;47980;48.794;9.176;2023-04-28T00:00:41;98070.69;;;13.06;68.83
13767;BME280;47980;48.794;9.176;2023-04-28T00:03:13;98065.44;;;13.10;69.04
13767;BME280;47980;48.794;9.176;2023-04-28T00:05:45;98074.66;;;13.12;71.00
13767;BME280;47980;48.794;9.176;2023-04-28T00:08:18;98070.44;;;13.11;68.88
13767;BME280;47980;48.794;9.176;2023-04-28T00:10:53;98062.19;;;13.16;69.97
13767;BME280;47980;48.794;9.176;2023-04-28T00:13:24;98052.91;;;13.10;70.59
13767;BME280;47980;48.794;9.176;2023-04-28T00:15:56;98053.84;;;13.18;68.68
13767;BME280;47980;48.794;9.176;2023-04-28T00:18:29;98056.00;;;13.12;69.34
13767;BME280;47980;48.794;9.176;2023-04-28T00:21:02;98047.34;;;13.15;69.85
13767;BME280;47980;48.794;9.176;2023-04-28T00:23:34;98048.78;;;13.13;69.45
13767;BME280;47980;48.794;9.176;2023-04-28T00:26:06;98048.19;;;13.19;69.33
13767;BME280;47980;48.794;9.176;2023-04-28T00:28:38;98035.22;;;13.18;69.99
13767;BME280;47980;48.794;9.176;2023-04-28T00:31:10;98050.88;;;13.19;68.13
13767;BME280;47980;48.794;9.176;2023-04-28T00:33:43;98038.66;;;13.18;69.38
13767;BME280;47980;48.794;9.176;2023-04-28T00:36:15;98046.03;;;13.09;70.69
13767;BME280;47980;48.794;9.176;2023-04-28T00:38:46;98046.22;;;13.16;70.73
13767;BME280;47980;48.794;9.176;2023-04-28T00:41:19;98034.25;;;13.10;69.29
13767;BME280;47980;48.794;9.176;2023-04-28T00:43:51;98039.25;;;13.12;69.65
13767;BME280;47980;48.794;9.176;2023-04-28T00:46:24;98028.16;;;13.10;68.69
13767;BME280;47980;48.794;9.176;2023-04-28T00:48:57;98034.34;;;13.14;67.58
13767;BME280;47980;48.794;9.176;2023-04-28T00:51:29;98029.31;;;13.24;67.01
13767;BME280;47980;48.794;9.176;2023-04-28T00:54:03;98026.53;;;13.21;68.78
13767;BME280;47980;48.794;9.176;2023-04-28T00:56:37;98022.09;;;13.25;70.21
13767;BME280;47980;48.794;9.176;2023-04-28T00:59:09;98030.91;;;13.13;71.81
13767;BME280;47980;48.794;9.176;2023-04-28T01:01:40;98028.16;;;13.10;71.69
13767;BME280;47980;48.794;9.176;2023-04-28T01:04:12;98011.41;;;13.09;69.44
13767;BME280;47980;48.794;9.176;2023-04-28T01:06:45;98019.66;;;13.20;69.59
13767;BME280;47980;48.794;9.176;2023-04-28T01:09:17;98012.56;;;13.24;71.17
13767;BME280;47980;48.794;9.176;2023-04-28T01:11:50;98009.28;;;13.15;70.86
13767;BME280;47980;48.794;9.176;2023-04-28T01:14:22;98009.44;;;13.06;72.45
13767;BME280;47980;48.794;9.176;2023-04-28T01:16:53;98016.47;;;13.14;70.02
13767;BME280;47980;48.794;9.176;2023-04-28T01:19:26;98005.03;;;13.14;71.37
13767;BME280;47980;48.794;9.176;2023-04-28T01:21:58;98007.88;;;13.21;71.92
13767;BME280;47980;48.794;9.176;2023-04-28T01:24:32;98002.69;;;13.24;70.40
13767;BME280;47980;48.794;9.176;2023-04-28T01:27:03;97985.41;;;13.34;68.92
13767;BME280;47980;48.794;9.176;2023-04-28T01:29:35;98000.94;;;13.32;70.51
13767;BME280;47980;48.794;9.176;2023-04-28T01:32:07;97986.38;;;13.26;71.61
13767;BME280;47980;48.794;9.176;2023-04-28T01:34:39;97987.69;;;13.20;72.35
13767;BME280;47980;48.794;9.176;2023-04-28T01:37:11;97983.75;;;13.14;71.03
13767;BME280;47980;48.794;9.176;2023-04-28T01:39:44;97983.06;;;13.17;71.73
13767;BME280;47980;48.794;9.176;2023-04-28T01:42:15;97980.41;;;13.17;71.97
13767;BME280;47980;48.794;9.176;2023-04-28T01:44:47;97975.78;;;13.30;71.98
13767;BME280;47980;48.794;9.176;2023-04-28T01:47:18;97980.59;;;13.24;72.36
13767;BME280;47980;48.794;9.176;2023-04-28T01:49:50;97977.31;;;13.15;73.17
13767;BME280;47980;48.794;9.176;2023-04-28T01:52:22;97975.59;;;13.22;73.30
13767;BME280;47980;48.794;9.176;2023-04-28T01:54:55;97967.13;;;13.33;72.41
13767;BME280;47980;48.794;9.176;2023-04-28T01:57:26;97962.72;;;13.24;70.50
13767;BME280;47980;48.794;9.176;2023-04-28T01:59:58;97976.38;;;13.23;72.32
13767;BME280;47980;48.794;9.176;2023-04-28T02:02:30;97968.22;;;13.32;73.25
13767;BME280;47980;48.794;9.176;2023-04-28T02:05:01;97965.06;;;13.26;74.52
13767;BME280;47980;48.794;9.176;2023-04-28T02:07:33;97964.38;;;13.29;72.29
13767;BME280;47980;48.794;9.176;2023-04-28T02:10:07;97963.81;;;13.39;71.34
13767;BME280;47980;48.794;9.176;2023-04-28T02:12:39;97956.94;;;13.38;71.88
13767;BME280;47980;48.794;9.176;2023-04-28T02:15:11;97952.50;;;13.27;73.58
13767;BME280;47980;48.794;9.176;2023-04-28T02:17:43;97942.69;;;13.31;72.82
13767;BME280;47980;48.794;9.176;2023-04-28T02:20:15;97951.91;;;13.33;72.04
13767;BME280;47980;48.794;9.176;2023-04-28T02:22:46;97950.50;;;13.39;69.24
13767;BME280;47980;48.794;9.176;2023-04-28T02:25:19;97963.50;;;13.41;69.63
13767;BME280;47980;48.794;9.176;2023-04-28T02:27:51;97956.66;;;13.43;72.65
13767;BME280;47980;48.794;9.176;2023-04-28T02:30:22;97945.00;;;13.48;72.31
13767;BME280;47980;48.794;9.176;2023-04-28T02:32:54;97939.25;;;13.30;74.17
13767;BME280;47980;48.794;9.176;2023-04-28T02:35:26;97942.84;;;13.38;74.15
13767;BME280;47980;48.794;9.176;2023-04-28T02:37:57;97937.25;;;13.43;75.16
13767;BME280;47980;48.794;9.176;2023-04-28T02:40:30;97931.84;;;13.39;74.12
13767;BME280;47980;48.794;9.176;2023-04-28T02:43:02;97929.91;;;13.36;73.59
13767;BME280;47980;48.794;9.176;2023-04-28T02:45:33;97938.03;;;13.43;72.10
13767;BME280;47980;48.794;9.176;2023-04-28T02:48:05;97944.91;;;13.44;71.22
13767;BME280;47980;48.794;9.176;2023-04-28T02:50:36;97948.06;;;13.50;70.27
13767;BME280;47980;48.794;9.176;2023-04-28T02:53:08;97945.06;;;13.52;68.68
13767;BME280;47980;48.794;9.176;2023-04-28T02:55:41;97950.03;;;13.53;71.99
13767;BME280;47980;48.794;9.176;2023-04-28T02:58:13;97946.78;;;13.60;68.15
13767;BME280;47980;48.794;9.176;2023-04-28T03:00:44;97951.19;;;13.71;67.35
13767;BME280;47980;48.794;9.176;2023-04-28T03:03:16;97954.78;;;13.79;66.73
13767;BME280;47980;48.794;9.176;2023-04-28T03:05:48;97948.16;;;13.89;66.77
13767;BME280;47980;48.794;9.176;2023-04-28T03:08:19;97952.34;;;13.90;69.05
13767;BME280;47980;48.794;9.176;2023-04-28T03:10:53;97956.44;;;13.84;68.71
13767;BME280;47980;48.794;9.176;2023-04-28T03:13:24;97947.56;;;13.80;67.84
13767;BME280;47980;48.794;9.176;2023-04-28T03:15:56;97955.31;;;13.85;69.65
13767;BME280;47980;48.794;9.176;2023-04-28T03:18:28;97951.94;;;13.88;66.72
13767;BME280;47980;48.794;9.176;2023-04-28T03:20:59;97941.59;;;13.86;70.91
13767;BME280;47980;48.794;9.176;2023-04-28T03:23:31;97941.59;;;13.86;71.34
13767;BME280;47980;48.794;9.176;2023-04-28T03:26:04;97938.09;;;13.82;75.66
13767;BME280;47980;48.794;9.176;2023-04-28T03:28:36;97931.22;;;13.81;75.72
13767;BME280;47980;48.794;9.176;2023-04-28T03:31:08;97935.03;;;13.80;77.11
13767;BME280;47980;48.794;9.176;2023-04-28T03:33:39;97937.72;;;13.64;76.85
13767;BME280;47980;48.794;9.176;2023-04-28T03:36:11;97932.13;;;13.69;76.38
13767;BME280;47980;48.794;9.176;2023-04-28T03:38:43;97932.16;;;13.54;77.17
13767;BME280;47980;48.794;9.176;2023-04-28T03:41:16;97932.69;;;13.59;77.77
13767;BME280;47980;48.794;9.176;2023-04-28T03:43:47;97931.75;;;13.36;77.80
13767;BME280;47980;48.794;9.176;2023-04-28T03:46:21;97928.06;;;13.40;80.32
13767;BME280;47980;48.794;9.176;2023-04-28T03:48:53;97926.88;;;13.38;83.42
13767;BME280;47980;48.794;9.176;2023-04-28T03:51:24;97923.69;;;13.48;82.75
13767;BME280;47980;48.794;9.176;2023-04-28T03:53:57;97925.97;;;13.49;82.21
13767;BME280;47980;48.794;9.176;2023-04-28T03:56:30;97915.16;;;13.42;83.14
13767;BME280;47980;48.794;9.176;2023-04-28T03:59:01;97910.28;;;13.29;84.93
13767;BME280;47980;48.794;9.176;2023-04-28T04:01:33;97915.44;;;13.37;84.94
13767;BME280;47980;48.794;9.176;2023-04-28T04:04:05;97912.63;;;13.30;86.47
13767;BME280;47980;48.794;9.176;2023-04-28T04:06:36;97919.31;;;13.40;86.51
13767;BME280;47980;48.794;9.176;2023-04-28T04:09:08;97912.94;;;13.44;86.73
13767;BME280;47980;48.794;9.176;2023-04-28T04:11:41;97904.44;;;13.39;86.45
13767;BME280;47980;48.794;9.176;2023-04-28T04:14:12;97908.72;;;13.43;86.42
13767;BME280;47980;48.794;9.176;2023-04-28T04:16:45;97906.56;;;13.49;86.35
13767;BME280;47980;48.794;9.176;2023-04-28T04:19:17;97902.16;;;13.57;83.28
13767;BME280;47980;48.794;9.176;2023-04-28T04:21:49;97903.59;;;13.54;83.84
13767;BME280;47980;48.794;9.176;2023-04-28T04:24:21;97904.75;;;13.53;86.45
13767;BME280;47980;48.794;9.176;2023-04-28T04:26:54;97905.66;;;13.61;86.96
13767;BME280;47980;48.794;9.176;2023-04-28T04:29:25;97905.94;;;13.56;84.69
13767;BME280;47980;48.794;9.176;2023-04-28T04:31:57;97896.28;;;13.67;86.54
13767;BME280;47980;48.794;9.176;2023-04-28T04:34:29;97901.66;;;13.51;84.34
13767;BME280;47980;48.794;9.176;2023-04-28T04:37:00;97911.13;;;13.68;81.64
13767;BME280;47980;48.794;9.176;2023-04-28T04:39:32;97908.47;;;13.68;82.95
13767;BME280;47980;48.794;9.176;2023-04-28T04:42:05;97907.63;;;13.64;85.23
13767;BME280;47980;48.794;9.176;2023-04-28T04:44:36;97905.88;;;13.71;87.12
13767;BME280;47980;48.794;9.176;2023-04-28T04:47:08;97904.28;;;13.67;87.81
13767;BME280;47980;48.794;9.176;2023-04-28T04:49:40;97906.03;;;13.59;88.19
13767;BME280;47980;48.794;9.176;2023-04-28T04:52:12;97903.75;;;13.61;88.76
13767;BME280;47980;48.794;9.176;2023-04-28T04:54:43;97894.88;;;13.73;87.16
13767;BME280;47980;48.794;9.176;2023-04-28T04:57:17;97896.97;;;13.64;86.86
13767;BME280;47980;48.794;9.176;2023-04-28T04:59:49;97895.66;;;13.73;87.64
13767;BME280;47980;48.794;9.176;2023-04-28T05:02:21;97885.69;;;13.70;86.96
13767;BME280;47980;48.794;9.176;2023-04-28T05:04:52;97890.19;;;13.66;90.10
13767;BME280;47980;48.794;9.176;2023-04-28T05:07:24;97896.91;;;13.60;91.29
13767;BME280;47980;48.794;9.176;2023-04-28T05:09:56;97896.59;;;13.46;92.67
13767;BME280;47980;48.794;9.176;2023-04-28T05:12:46;97894.22;;;13.60;91.62
13767;BME280;47980;48.794;9.176;2023-04-28T05:15:20;97901.66;;;13.51;93.51
13767;BME280;47980;48.794;9.176;2023-04-28T05:18:00;97896.75;;;13.53;90.27
13767;BME280;47980;48.794;9.176;2023-04-28T05:20:44;97895.91;;;13.49;91.02
13767;BME280;47980;48.794;9.176;2023-04-28T05:23:16;97898.28;;;13.54;90.92
13767;BME280;47980;48.794;9.176;2023-04-28T05:25:48;97910.72;;;13.66;90.91
13767;BME280;47980;48.794;9.176;2023-04-28T05:28:21;97903.66;;;13.73;91.21
13767;BME280;47980;48.794;9.176;2023-04-28T05:30:55;97909.97;;;13.85;91.10
13767;BME280;47980;48.794;9.176;2023-04-28T05:33:36;97902.97;;;13.77;90.61
13767;BME280;47980;48.794;9.176;2023-04-28T05:36:31;97915.56;;;13.80;91.44
13767;BME280;47980;48.794;9.176;2023-04-28T05:47:35;97915.94;;;13.78;95.29
13767;BME280;47980;48.794;9.176;2023-04-28T05:50:08;97904.34;;;13.70;94.80
13767;BME280;47980;48.794;9.176;2023-04-28T05:52:42;97902.88;;;13.73;94.86
13767;BME280;47980;48.794;9.176;2023-04-28T05:55:14;97901.81;;;13.78;97.34
13767;BME280;47980;48.794;9.176;2023-04-28T05:57:45;97898.78;;;13.79;97.61
13767;BME280;47980;48.794;9.176;2023-04-28T06:00:17;97894.22;;;13.80;98.55
13767;BME280;47980;48.794;9.176;2023-04-28T06:02:50;97896.78;;;13.72;98.85
13767;BME280;47980;48.794;9.176;2023-04-28T06:05:22;97890.94;;;13.67;100.00
13767;BME280;47980;48.794;9.176;2023-04-28T06:07:54;97904.13;;;13.79;98.98
13767;BME280;47980;48.794;9.176;2023-04-28T06:10:26;97901.91;;;13.81;99.64
13767;BME280;47980;48.794;9.176;2023-04-28T06:12:57;97901.13;;;13.81;99.88
13767;BME280;47980;48.794;9.176;2023-04-28T06:15:29;97895.03;;;13.80;99.53
13767;BME280;47980;48.794;9.176;2023-04-28T06:18:02;97893.75;;;13.74;99.77
13767;BME280;47980;48.794;9.176;2023-04-28T06:20:35;97896.00;;;13.72;100.00
13767;BME280;47980;48.794;9.176;2023-04-28T06:23:07;97899.00;;;13.70;100.00
13767;BME280;47980;48.794;9.176;2023-04-28T06:25:39;97898.56;;;13.68;100.00
13767;BME280;47980;48.794;9.176;2023-04-28T06:28:10;97899.84;;;13.75;100.00
13767;BME280;47980;48.794;9.176;2023-04-28T06:30:43;97895.91;;;13.68;100.00
13767;BME280;47980;48.794;9.176;2023-04-28T06:33:16;97888.66;;;13.49;100.00
13767;BME280;47980;48.794;9.176;2023-04-28T06:35:47;97888.13;;;13.60;100.00
13767;BME280;47980;48.794;9.176;2023-04-28T06:38:19;97885.75;;;13.74;100.00
13767;BME280;47980;48.794;9.176;2023-04-28T06:40:50;97890.88;;;14.02;100.00
13767;BME280;47980;48.794;9.176;2023-04-28T06:43:22;97877.69;;;14.09;100.00
13767;BME280;47980;48.794;9.176;2023-04-28T06:45:54;97881.13;;;14.10;100.00
13767;BME280;47980;48.794;9.176;2023-04-28T06:48:27;97878.66;;;14.01;100.00
13767;BME280;47980;48.794;9.176;2023-04-28T06:51:00;97878.53;;;13.94;100.00
13767;BME280;47980;48.794;9.176;2023-04-28T06:53:31;97875.97;;;14.01;100.00
13767;BME280;47980;48.794;9.176;2023-04-28T06:56:04;97878.09;;;14.11;100.00
13767;BME280;47980;48.794;9.176;2023-04-28T06:58:35;97875.91;;;14.17;99.14
13767;BME280;47980;48.794;9.176;2023-04-28T07:01:07;97874.88;;;14.02;100.00
13767;BME280;47980;48.794;9.176;2023-04-28T07:03:42;97869.56;;;14.02;100.00
13767;BME280;47980;48.794;9.176;2023-04-28T07:06:14;97864.75;;;14.11;100.00
13767;BME280;47980;48.794;9.176;2023-04-28T07:08:46;97863.56;;;14.09;100.00
13767;BME280;47980;48.794;9.176;2023-04-28T07:11:18;97866.53;;;14.27;99.14
13767;BME280;47980;48.794;9.176;2023-04-28T07:13:49;97859.97;;;14.20;99.57
13767;BME280;47980;48.794;9.176;2023-04-28T07:16:21;97855.97;;;14.11;100.00
13767;BME280;47980;48.794;9.176;2023-04-28T07:18:54;97856.94;;;14.22;100.00
13767;BME280;47980;48.794;9.176;2023-04-28T07:21:25;97852.94;;;14.32;100.00
13767;BME280;47980;48.794;9.176;2023-04-28T07:23:57;97853.28;;;14.30;100.00
13767;BME280;47980;48.794;9.176;2023-04-28T07:26:28;97854.91;;;14.35;100.00
13767;BME280;47980;48.794;9.176;2023-04-28T07:29:00;97856.06;;;14.57;99.14
13767;BME280;47980;48.794;9.176;2023-04-28T07:31:31;97849.25;;;14.40;100.00
13767;BME280;47980;48.794;9.176;2023-04-28T07:34:04;97849.31;;;14.43;99.95
13767;BME280;47980;48.794;9.176;2023-04-28T07:36:36;97843.47;;;14.57;98.54
13767;BME280;47980;48.794;9.176;2023-04-28T07:39:07;97847.94;;;14.50;100.00
13767;BME280;47980;48.794;9.176;2023-04-28T07:41:39;97849.16;;;14.56;99.86
13767;BME280;47980;48.794;9.176;2023-04-28T07:44:11;97842.44;;;14.65;99.57
13767;BME280;47980;48.794;9.176;2023-04-28T07:46:42;97846.81;;;14.31;100.00
13767;BME280;47980;48.794;9.176;2023-04-28T07:49:15;97846.84;;;14.54;99.69
13767;BME280;47980;48.794;9.176;2023-04-28T07:51:47;97845.31;;;14.53;99.13
13767;BME280;47980;48.794;9.176;2023-04-28T07:54:18;97838.81;;;14.77;100.00
13767;BME280;47980;48.794;9.176;2023-04-28T07:56:50;97843.53;;;14.61;100.00
13767;BME280;47980;48.794;9.176;2023-04-28T07:59:22;97846.06;;;14.77;100.00
13767;BME280;47980;48.794;9.176;2023-04-28T08:01:53;97852.69;;;14.60;100.00
13767;BME280;47980;48.794;9.176;2023-04-28T08:04:26;97852.38;;;14.65;100.00
13767;BME280;47980;48.794;9.176;2023-04-28T08:06:59;97856.75;;;14.77;100.00
13767;BME280;47980;48.794;9.176;2023-04-28T08:09:31;97870.19;;;14.84;100.00
13767;BME280;47980;48.794;9.176;2023-04-28T08:12:04;97864.34;;;14.52;100.00
13767;BME280;47980;48.794;9.176;2023-04-28T08:14:36;97869.47;;;14.60;100.00
13767;BME280;47980;48.794;9.176;2023-04-28T08:17:07;97873.13;;;14.75;100.00
13767;BME280;47980;48.794;9.176;2023-04-28T08:19:40;97876.75;;;14.86;100.00
13767;BME280;47980;48.794;9.176;2023-04-28T08:22:14;97891.75;;;14.72;100.00
13767;BME280;47980;48.794;9.176;2023-04-28T08:24:45;97888.31;;;14.71;100.00
13767;BME280;47980;48.794;9.176;2023-04-28T08:27:17;97908.44;;;14.65;100.00
13767;BME280;47980;48.794;9.176;2023-04-28T08:29:48;97906.56;;;14.46;100.00
13767;BME280;47980;48.794;9.176;2023-04-28T08:32:21;97916.75;;;14.40;100.00
13767;BME280;47980;48.794;9.176;2023-04-28T08:34:54;97918.59;;;14.17;100.00
13767;BME280;47980;48.794;9.176;2023-04-28T08:37:26;97913.47;;;14.08;100.00
13767;BME280;47980;48.794;9.176;2023-04-28T08:39:57;97905.56;;;13.92;100.00
13767;BME280;47980;48.794;9.176;2023-04-28T08:42:34;97907.38;;;13.88;100.00
13767;BME280;47980;48.794;9.176;2023-04-28T08:45:07;97901.75;;;14.13;100.00
13767;BME280;47980;48.794;9.176;2023-04-28T08:47:43;97907.47;;;14.54;100.00
13767;BME280;47980;48.794;9.176;2023-04-28T08:50:20;97910.63;;;14.82;100.00
13767;BME280;47980;48.794;9.176;2023-04-28T08:52:53;97919.47;;;14.63;100.00
13767;BME280;47980;48.794;9.176;2023-04-28T08:55:27;97924.09;;;14.89;100.00
13767;BME280;47980;48.794;9.176;2023-04-28T08:58:00;97925.75;;;14.98;100.00
13767;BME280;47980;48.794;9.176;2023-04-28T09:00:35;97923.28;;;14.85;100.00
13767;BME280;47980;48.794;9.176;2023-04-28T09:03:07;97928.69;;;14.89;100.00
13767;BME280;47980;48.794;9.176;2023-04-28T09:05:40;97932.06;;;14.43;100.00
13767;BME280;47980;48.794;9.176;2023-04-28T09:08:12;97930.22;;;14.67;100.00
13767;BME280;47980;48.794;9.176;2023-04-28T09:10:43;97929.91;;;14.95;100.00
13767;BME280;47980;48.794;9.176;2023-04-28T09:13:24;97935.53;;;15.13;100.00
13767;BME280;47980;48.794;9.176;2023-04-28T09:15:58;97937.91;;;15.18;100.00
13767;BME280;47980;48.794;9.176;2023-04-28T09:18:30;97937.06;;;15.14;100.00
13767;BME280;47980;48.794;9.176;2023-04-28T09:21:04;97939.47;;;14.73;100.00
13767;BME280;47980;48.794;9.176;2023-04-28T09:23:46;97937.88;;;14.68;100.00
13767;BME280;47980;48.794;9.176;2023-04-28T09:26:17;97937.31;;;15.05;100.00
13767;BME280;47980;48.794;9.176;2023-04-28T09:28:49;97937.69;;;15.04;100.00
13767;BME280;47980;48.794;9.176;2023-04-28T09:31:22;97939.06;;;15.21;100.00
13767;BME280;47980;48.794;9.176;2023-04-28T09:33:57;97934.75;;;15.39;100.00
13767;BME280;47980;48.794;9.176;2023-04-28T09:36:31;97930.91;;;15.63;100.00
13767;BME280;47980;48.794;9.176;2023-04-28T09:39:03;97931.69;;;15.94;100.00
13767;BME280;47980;48.794;9.176;2023-04-28T09:41:35;97931.00;;;16.30;100.00
13767;BME280;47980;48.794;9.176;2023-04-28T09:44:12;97925.81;;;16.48;98.00
13767;BME280;47980;48.794;9.176;2023-04-28T09:46:45;97931.88;;;16.79;93.52
13767;BME280;47980;48.794;9.176;2023-04-28T09:49:16;97934.25;;;16.13;98.15
13767;BME280;47980;48.794;9.176;2023-04-28T09:51:49;97929.06;;;15.97;100.00
13767;BME280;47980;48.794;9.176;2023-04-28T09:54:21;97929.91;;;16.01;100.00
13767;BME280;47980;48.794;9.176;2023-04-28T09:56:54;97923.84;;;16.79;96.23
13767;BME280;47980;48.794;9.176;2023-04-28T09:59:27;97929.09;;;16.72;95.11
13767;BME280;47980;48.794;9.176;2023-04-28T10:01:59;97923.13;;;16.48;97.52
13767;BME280;47980;48.794;9.176;2023-04-28T10:04:33;97924.16;;;16.36;97.69
13767;BME280;47980;48.794;9.176;2023-04-28T10:07:06;97929.03;;;16.65;96.27
13767;BME280;47980;48.794;9.176;2023-04-28T10:09:39;97934.28;;;16.95;93.54
13767;BME280;47980;48.794;9.176;2023-04-28T10:12:13;97925.84;;;17.44;91.86
13767;BME280;47980;48.794;9.176;2023-04-28T10:14:45;97923.09;;;16.82;97.14
13767;BME280;47980;48.794;9.176;2023-04-28T10:17:20;97930.16;;;17.01;94.43
13767;BME280;47980;48.794;9.176;2023-04-28T10:19:52;97928.75;;;17.18;96.15
13767;BME280;47980;48.794;9.176;2023-04-28T10:22:38;97918.31;;;17.71;93.49
13767;BME280;47980;48.794;9.176;2023-04-28T10:25:26;97918.13;;;17.39;95.56
13767;BME280;47980;48.794;9.176;2023-04-28T10:27:59;97912.78;;;18.09;91.89
13767;BME280;47980;48.794;9.176;2023-04-28T10:30:31;97902.56;;;18.93;87.61
13767;BME280;47980;48.794;9.176;2023-04-28T10:33:22;97906.78;;;19.05;86.49
13767;BME280;47980;48.794;9.176;2023-04-28T10:35:55;97906.78;;;18.76;88.83
13767;BME280;47980;48.794;9.176;2023-04-28T10:38:28;97910.97;;;19.23;86.57
13767;BME280;47980;48.794;9.176;2023-04-28T10:41:00;97916.38;;;19.13;86.77
13767;BME280;47980;48.794;9.176;2023-04-28T10:43:34;97912.50;;;19.35;87.07
13767;BME280;47980;48.794;9.176;2023-04-28T10:46:09;97918.66;;;19.32;88.30
13767;BME280;47980;48.794;9.176;2023-04-28T10:48:54;97916.00;;;19.25;87.89
13767;BME280;47980;48.794;9.176;2023-04-28T10:51:30;97924.38;;;19.59;86.46
13767;BME280;47980;48.794;9.176;2023-04-28T10:54:16;97923.06;;;20.07;84.46
13767;BME280;47980;48.794;9.176;2023-04-28T10:57:17;97917.44;;;19.73;87.06
13767;BME280;47980;48.794;9.176;2023-04-28T10:59:49;97932.69;;;20.08;83.58
13767;BME280;47980;48.794;9.176;2023-04-28T11:02:40;97920.69;;;20.27;81.67
13767;BME280;47980;48.794;9.176;2023-04-28T11:05:20;97916.31;;;20.54;80.50
13767;BME280;47980;48.794;9.176;2023-04-28T11:11:12;97920.16;;;21.05;78.49
13767;BME280;47980;48.794;9.176;2023-04-28T11:13:45;97916.41;;;20.33;79.63
13767;BME280;47980;48.794;9.176;2023-04-28T11:16:19;97928.06;;;21.27;75.98
13767;BME280;47980;48.794;9.176;2023-04-28T11:18:59;97916.94;;;21.21;75.80
13767;BME280;47980;48.794;9.176;2023-04-28T11:21:34;97919.94;;;20.85;77.10
13767;BME280;47980;48.794;9.176;2023-04-28T11:24:08;97915.56;;;21.47;75.09
13767;BME280;47980;48.794;9.176;2023-04-28T11:26:43;97920.28;;;21.39;72.93
13767;BME280;47980;48.794;9.176;2023-04-28T11:29:15;97923.66;;;21.47;74.21
13767;BME280;47980;48.794;9.176;2023-04-28T11:31:48;97917.34;;;21.20;74.89
13767;BME280;47980;48.794;9.176;2023-04-28T11:34:21;97920.00;;;21.65;73.24
13767;BME280;47980;48.794;9.176;2023-04-28T11:36:54;97914.91;;;21.70;74.65
13767;BME280;47980;48.794;9.176;2023-04-28T11:39:27;97908.41;;;20.85;76.86
13767;BME280;47980;48.794;9.176;2023-04-28T11:42:01;97914.97;;;20.80;77.15
13767;BME280;47980;48.794;9.176;2023-04-28T11:44:39;97916.22;;;21.17;74.67
13767;BME280;47980;48.794;9.176;2023-04-28T11:47:10;97907.75;;;21.15;75.33
13767;BME280;47980;48.794;9.176;2023-04-28T11:49:43;97910.34;;;20.81;73.33
13767;BME280;47980;48.794;9.176;2023-04-28T11:52:15;97908.97;;;20.55;74.65
13767;BME280;47980;48.794;9.176;2023-04-28T11:54:52;97907.00;;;21.11;72.95
13767;BME280;47980;48.794;9.176;2023-04-28T11:57:25;97905.56;;;21.44;69.86
13767;BME280;47980;48.794;9.176;2023-04-28T12:00:11;97898.59;;;20.53;71.54
13767;BME280;47980;48.794;9.176;2023-04-28T12:02:43;97909.22;;;20.78;74.78
13767;BME280;47980;48.794;9.176;2023-04-28T12:05:15;97900.78;;;20.69;74.98
13767;BME280;47980;48.794;9.176;2023-04-28T12:07:46;97899.41;;;20.43;73.08
13767;BME280;47980;48.794;9.176;2023-04-28T12:10:18;97900.91;;;20.48;71.74
13767;BME280;47980;48.794;9.176;2023-04-28T12:12:51;97896.00;;;20.91;70.37
13767;BME280;47980;48.794;9.176;2023-04-28T12:15:22;97896.00;;;20.91;68.80
13767;BME280;47980;48.794;9.176;2023-04-28T12:17:54;97894.75;;;21.03;70.87
13767;BME280;47980;48.794;9.176;2023-04-28T12:20:33;97897.88;;;21.43;69.36
13767;BME280;47980;48.794;9.176;2023-04-28T12:23:06;97905.03;;;21.15;68.01
13767;BME280;47980;48.794;9.176;2023-04-28T12:25:44;97892.44;;;21.01;66.43
13767;BME280;47980;48.794;9.176;2023-04-28T12:28:18;97894.97;;;20.78;68.91
13767;BME280;47980;48.794;9.176;2023-04-28T12:30:50;97900.47;;;20.63;71.40
13767;BME280;47980;48.794;9.176;2023-04-28T12:33:34;97899.25;;;20.05;70.20
13767;BME280;47980;48.794;9.176;2023-04-28T12:36:06;97908.81;;;20.13;72.21
13767;BME280;47980;48.794;9.176;2023-04-28T12:38:46;97906.03;;;20.31;73.16
13767;BME280;47980;48.794;9.176;2023-04-28T12:41:18;97908.22;;;20.47;72.21
13767;BME280;47980;48.794;9.176;2023-04-28T12:43:51;97913.84;;;20.08;73.89
13767;BME280;47980;48.794;9.176;2023-04-28T12:46:22;97917.34;;;20.01;72.16
13767;BME280;47980;48.794;9.176;2023-04-28T12:48:54;97918.59;;;19.71;73.01
13767;BME280;47980;48.794;9.176;2023-04-28T12:51:26;97915.16;;;19.42;81.89
13767;BME280;47980;48.794;9.176;2023-04-28T12:53:59;97919.03;;;18.70;88.08
13767;BME280;47980;48.794;9.176;2023-04-28T12:56:30;97917.88;;;18.67;91.77
13767;BME280;47980;48.794;9.176;2023-04-28T12:59:03;97911.69;;;18.38;93.89
13767;BME280;47980;48.794;9.176;2023-04-28T13:01:35;97912.16;;;18.87;90.09
13767;BME280;47980;48.794;9.176;2023-04-28T13:04:06;97908.31;;;18.77;86.16
13767;BME280;47980;48.794;9.176;2023-04-28T13:06:38;97899.06;;;18.53;86.99
13767;BME280;47980;48.794;9.176;2023-04-28T13:09:14;97879.53;;;18.95;85.47
13767;BME280;47980;48.794;9.176;2023-04-28T13:11:45;97882.44;;;18.04;89.59
13767;BME280;47980;48.794;9.176;2023-04-28T13:14:18;97869.84;;;18.37;89.03
13767;BME280;47980;48.794;9.176;2023-04-28T13:16:51;97861.06;;;18.62;88.46
13767;BME280;47980;48.794;9.176;2023-04-28T13:19:22;97868.38;;;18.90;89.14
13767;BME280;47980;48.794;9.176;2023-04-28T13:21:54;97881.78;;;19.29;83.97
13767;BME280;47980;48.794;9.176;2023-04-28T13:24:25;97891.03;;;18.74;84.73
13767;BME280;47980;48.794;9.176;2023-04-28T13:26:57;97892.56;;;18.75;85.97
13767;BME280;47980;48.794;9.176;2023-04-28T13:29:30;97882.59;;;19.01;80.93
13767;BME280;47980;48.794;9.176;2023-04-28T13:32:02;97889.72;;;18.04;85.37
13767;BME280;47980;48.794;9.176;2023-04-28T13:34:34;97882.19;;;18.56;86.05
13767;BME280;47980;48.794;9.176;2023-04-28T13:37:06;97887.97;;;18.87;84.53
13767;BME280;47980;48.794;9.176;2023-04-28T13:39:38;97884.75;;;18.02;88.79